Time;durP1;ratioP1;P1;durP2;ratioP2;P2;SDS_P1;SDS_P2;PMS_P1;PMS_P2;Temp;Humidity;BMP_temperature;BMP_pressure;BME280_temperature;BME280_humidity;BME280_pressure;Samples;Min_cycle;Max_cycle;Signal;HPM_P1;HPM_P2
2022/11/26 00:01:19;;;;;;;32.17;28.73;;;;;;;;;;5071179;28;20277;-56
2022/11/26 00:03:44;;;;;;;32.63;29.50;;;;;;;;;;5071252;28;20198;-56
2022/11/26 00:06:22;;;;;;;35.07;31.60;;;;;;;;;;5068319;28;20568;-56
2022/11/26 00:08:47;;;;;;;32.57;29.70;;;;;;;;;;5056174;28;20171;-56
2022/11/26 00:11:14;;;;;;;55.53;51.00;;;;;;;;;;5057145;28;20599;-57
2022/11/26 00:13:39;;;;;;;34.63;30.93;;;;;;;;;;5075136;28;20644;-56
2022/11/26 00:16:04;;;;;;;32.67;29.47;;;;;;;;;;5067205;28;20641;-57
2022/11/26 00:18:29;;;;;;;30.80;27.67;;;;;;;;;;5061407;28;20230;-56
2022/11/26 00:20:58;;;;;;;25.70;23.20;;;;;;;;;;5069157;28;20210;-56
2022/11/26 00:23:25;;;;;;;30.57;27.57;;;;;;;;;;5068678;28;20696;-57
2022/11/26 00:25:52;;;;;;;31.17;28.17;;;;;;;;;;5084594;28;20654;-56
2022/11/26 00:28:23;;;;;;;32.90;29.50;;;;;;;;;;5086446;28;20600;-56
2022/11/26 00:30:48;;;;;;;30.87;27.80;;;;;;;;;;5072335;28;20603;-56
2022/11/26 00:33:13;;;;;;;27.33;24.57;;;;;;;;;;5057314;28;21067;-54
2022/11/26 00:35:38;;;;;;;27.92;25.40;;;;;;;;;;5071586;28;20181;-55
2022/11/26 00:38:04;;;;;;;29.93;26.87;;;;;;;;;;5076867;28;20180;-54
2022/11/26 00:40:32;;;;;;;29.90;27.10;;;;;;;;;;5074270;28;20244;-56
2022/11/26 00:42:58;;;;;;;30.27;27.17;;;;;;;;;;5059290;28;20234;-57
2022/11/26 00:45:24;;;;;;;28.47;25.87;;;;;;;;;;5070550;28;20662;-56
2022/11/26 00:47:50;;;;;;;27.07;24.67;;;;;;;;;;5057646;28;20183;-56
2022/11/26 00:50:16;;;;;;;29.07;24.83;;;;;;;;;;5054790;28;20601;-56
2022/11/26 00:52:42;;;;;;;29.30;26.27;;;;;;;;;;5062322;28;20190;-55
2022/11/26 00:55:28;;;;;;;29.07;26.17;;;;;;;;;;5050704;28;21135;-55
2022/11/26 00:57:53;;;;;;;26.03;23.60;;;;;;;;;;5063093;28;20199;-56
2022/11/26 01:00:20;;;;;;;28.23;25.37;;;;;;;;;;5070143;28;20663;-58
2022/11/26 01:02:45;;;;;;;23.63;21.47;;;;;;;;;;5068350;28;20288;-56
2022/11/26 01:05:11;;;;;;;26.67;23.90;;;;;;;;;;5070549;28;20693;-56
2022/11/26 01:07:36;;;;;;;25.73;23.00;;;;;;;;;;5070366;28;20262;-56
2022/11/26 01:10:02;;;;;;;26.20;23.70;;;;;;;;;;5070398;28;20191;-56
2022/11/26 01:12:27;;;;;;;27.33;24.73;;;;;;;;;;5067988;28;20210;-56
2022/11/26 01:14:52;;;;;;;25.73;23.17;;;;;;;;;;5070160;28;20184;-56
2022/11/26 01:17:17;;;;;;;27.37;24.57;;;;;;;;;;5070073;28;20175;-56
2022/11/26 01:19:42;;;;;;;29.77;26.70;;;;;;;;;;5065983;28;20186;-56
2022/11/26 01:22:17;;;;;;;31.35;27.20;;;;;;;;;;5081463;28;20241;-56
2022/11/26 01:24:42;;;;;;;30.13;25.47;;;;;;;;;;5082753;28;20225;-56
2022/11/26 01:27:09;;;;;;;28.97;26.10;;;;;;;;;;5085681;28;20639;-56
2022/11/26 01:29:34;;;;;;;26.73;23.90;;;;;;;;;;5068303;28;20227;-56
2022/11/26 01:31:59;;;;;;;31.43;25.87;;;;;;;;;;5084254;28;20781;-56
2022/11/26 01:34:24;;;;;;;27.10;24.50;;;;;;;;;;5086751;28;20175;-56
2022/11/26 01:36:50;;;;;;;33.53;26.00;;;;;;;;;;5076371;28;20179;-56
2022/11/26 01:39:16;;;;;;;30.60;27.33;;;;;;;;;;5066728;28;20313;-56
2022/11/26 01:41:44;;;;;;;29.50;26.47;;;;;;;;;;5057346;28;20202;-56
2022/11/26 01:44:14;;;;;;;31.73;26.80;;;;;;;;;;5065734;28;21047;-56
2022/11/26 01:46:40;;;;;;;28.83;25.97;;;;;;;;;;5077368;28;20606;-55
2022/11/26 01:49:34;;;;;;;27.10;24.33;;;;;;;;;;5082842;28;20670;-55
2022/11/26 01:52:11;;;;;;;31.93;26.90;;;;;;;;;;5073246;28;20890;-56
2022/11/26 01:54:38;;;;;;;27.63;24.87;;;;;;;;;;5087366;28;20608;-55
2022/11/26 01:57:08;;;;;;;27.73;24.80;;;;;;;;;;5084796;28;20623;-56
2022/11/26 01:59:36;;;;;;;27.60;24.10;;;;;;;;;;5082939;28;20623;-56
2022/11/26 02:02:01;;;;;;;27.23;24.33;;;;;;;;;;5079599;28;20651;-56
2022/11/26 02:04:26;;;;;;;27.17;24.53;;;;;;;;;;5076023;28;20687;-56
2022/11/26 02:06:52;;;;;;;25.93;23.57;;;;;;;;;;5083136;28;20257;-56
2022/11/26 02:09:18;;;;;;;26.90;24.03;;;;;;;;;;5083338;28;20170;-56
2022/11/26 02:11:43;;;;;;;27.83;25.10;;;;;;;;;;5073850;28;20606;-56
2022/11/26 02:14:15;;;;;;;29.00;24.60;;;;;;;;;;5075477;28;20823;-56
2022/11/26 02:16:40;;;;;;;28.00;24.03;;;;;;;;;;5087844;28;20193;-55
2022/11/26 02:19:08;;;;;;;27.13;24.13;;;;;;;;;;5075446;28;20658;-55
2022/11/26 02:21:34;;;;;;;28.87;23.20;;;;;;;;;;5084334;28;20189;-55
2022/11/26 02:24:16;;;;;;;29.47;25.10;;;;;;;;;;5077372;28;21037;-56
2022/11/26 02:27:02;;;;;;;27.53;24.70;;;;;;;;;;5087026;28;20969;-56
2022/11/26 02:29:53;;;;;;;26.93;23.33;;;;;;;;;;5070200;28;20627;-56
2022/11/26 02:32:26;;;;;;;27.50;24.57;;;;;;;;;;5058562;28;21164;-55
2022/11/26 02:34:58;;;;;;;28.10;25.20;;;;;;;;;;5069098;28;20655;-55
2022/11/26 02:37:30;;;;;;;24.90;22.50;;;;;;;;;;5083357;28;20652;-55
2022/11/26 02:39:55;;;;;;;27.67;24.93;;;;;;;;;;5066410;28;20618;-56
2022/11/26 02:42:23;;;;;;;27.53;24.83;;;;;;;;;;5055281;28;21202;-55
2022/11/26 02:44:48;;;;;;;26.17;23.23;;;;;;;;;;5054975;28;20253;-56
2022/11/26 02:47:16;;;;;;;25.77;22.20;;;;;;;;;;5052421;28;20582;-56
2022/11/26 02:49:42;;;;;;;27.83;25.03;;;;;;;;;;5052922;28;20180;-57
2022/11/26 02:52:08;;;;;;;29.47;25.90;;;;;;;;;;5064754;28;20601;-56
2022/11/26 02:54:35;;;;;;;29.73;25.77;;;;;;;;;;5071471;28;20695;-56
2022/11/26 02:57:02;;;;;;;29.40;25.43;;;;;;;;;;5070658;28;20581;-56
2022/11/26 02:59:27;;;;;;;27.47;24.67;;;;;;;;;;5072508;28;20607;-56
2022/11/26 03:01:55;;;;;;;31.13;25.90;;;;;;;;;;5072759;28;20585;-55
2022/11/26 03:04:23;;;;;;;29.63;26.60;;;;;;;;;;5071040;28;20214;-55
2022/11/26 03:06:48;;;;;;;28.50;25.60;;;;;;;;;;5070114;28;20697;-55
2022/11/26 03:09:16;;;;;;;29.70;26.83;;;;;;;;;;5072272;28;21084;-55
2022/11/26 03:11:42;;;;;;;28.03;24.77;;;;;;;;;;5072116;28;20177;-54
2022/11/26 03:14:07;;;;;;;28.30;25.40;;;;;;;;;;5071912;28;20584;-55
2022/11/26 03:16:32;;;;;;;28.27;25.20;;;;;;;;;;5070774;28;20608;-55
2022/11/26 03:18:57;;;;;;;28.13;25.03;;;;;;;;;;5071957;28;20227;-56
2022/11/26 03:21:22;;;;;;;26.27;23.67;;;;;;;;;;5072236;28;20176;-56
2022/11/26 03:23:47;;;;;;;30.00;26.75;;;;;;;;;;5072041;28;20212;-56
2022/11/26 03:26:13;;;;;;;30.40;25.83;;;;;;;;;;5070188;28;20245;-57
2022/11/26 03:28:38;;;;;;;26.33;23.95;;;;;;;;;;5071864;28;20579;-55
2022/11/26 03:31:03;;;;;;;27.87;24.97;;;;;;;;;;5060147;28;20180;-56
2022/11/26 03:33:28;;;;;;;28.70;25.90;;;;;;;;;;5051931;28;20182;-56
2022/11/26 03:35:53;;;;;;;27.97;25.17;;;;;;;;;;5053133;28;20176;-56
2022/11/26 03:38:18;;;;;;;27.73;24.80;;;;;;;;;;5071072;28;20656;-56
2022/11/26 03:40:44;;;;;;;27.60;24.90;;;;;;;;;;5071827;28;20179;-56
2022/11/26 03:43:09;;;;;;;25.47;23.27;;;;;;;;;;5070934;28;20214;-56
2022/11/26 03:45:34;;;;;;;27.07;24.33;;;;;;;;;;5071767;28;20756;-55
2022/11/26 03:47:59;;;;;;;27.03;24.40;;;;;;;;;;5052381;28;20193;-55
2022/11/26 03:50:24;;;;;;;27.70;24.93;;;;;;;;;;5051742;28;20517;-56
2022/11/26 03:52:50;;;;;;;26.13;23.47;;;;;;;;;;5050745;28;20259;-56
2022/11/26 03:55:15;;;;;;;24.93;22.83;;;;;;;;;;5051416;28;20172;-56
2022/11/26 03:57:40;;;;;;;27.37;24.57;;;;;;;;;;5056295;28;20266;-56
2022/11/26 04:00:07;;;;;;;31.10;27.80;;;;;;;;;;5069246;28;20183;-56
2022/11/26 04:02:32;;;;;;;25.77;23.37;;;;;;;;;;5071534;28;20259;-56
2022/11/26 04:04:58;;;;;;;30.07;24.93;;;;;;;;;;5069172;28;21057;-56
2022/11/26 04:07:23;;;;;;;30.70;27.10;;;;;;;;;;5063428;28;20184;-56
2022/11/26 04:09:48;;;;;;;30.05;26.80;;;;;;;;;;5070225;28;20240;-56
2022/11/26 04:12:13;;;;;;;25.77;23.37;;;;;;;;;;5071001;28;20190;-56
2022/11/26 04:14:38;;;;;;;31.20;27.87;;;;;;;;;;5071268;28;20695;-55
2022/11/26 04:17:03;;;;;;;28.30;25.40;;;;;;;;;;5070898;28;20188;-56
2022/11/26 04:19:29;;;;;;;28.65;26.08;;;;;;;;;;5069172;28;20234;-56
2022/11/26 04:21:54;;;;;;;34.07;27.83;;;;;;;;;;5068450;28;20592;-55
2022/11/26 04:24:19;;;;;;;30.23;26.97;;;;;;;;;;5064964;28;20562;-57
2022/11/26 04:26:45;;;;;;;29.87;26.73;;;;;;;;;;5048913;28;20187;-55
2022/11/26 04:29:10;;;;;;;30.37;26.20;;;;;;;;;;5060235;28;20178;-55
2022/11/26 04:31:35;;;;;;;31.73;28.33;;;;;;;;;;5070924;28;20174;-55
2022/11/26 04:34:00;;;;;;;30.03;27.00;;;;;;;;;;5070330;28;20203;-55
2022/11/26 04:36:26;;;;;;;32.63;29.43;;;;;;;;;;5070815;28;20175;-55
2022/11/26 04:38:51;;;;;;;30.73;27.70;;;;;;;;;;5069965;28;20665;-55
2022/11/26 04:41:16;;;;;;;35.67;31.30;;;;;;;;;;5058256;28;20535;-55
2022/11/26 04:43:41;;;;;;;37.73;32.03;;;;;;;;;;5058786;28;20255;-56
2022/11/26 04:46:07;;;;;;;36.87;32.00;;;;;;;;;;5079931;28;20636;-56
2022/11/26 04:48:32;;;;;;;34.57;30.03;;;;;;;;;;5070478;28;20304;-56
2022/11/26 04:50:57;;;;;;;32.70;29.40;;;;;;;;;;5062191;28;20169;-56
2022/11/26 04:53:22;;;;;;;32.53;29.10;;;;;;;;;;5070682;28;20164;-55
2022/11/26 04:55:48;;;;;;;33.90;29.80;;;;;;;;;;5051540;28;20227;-56
2022/11/26 04:58:14;;;;;;;36.73;30.30;;;;;;;;;;5064797;28;20179;-55
2022/11/26 05:00:39;;;;;;;39.50;31.60;;;;;;;;;;5070455;28;21010;-56
2022/11/26 05:03:04;;;;;;;33.83;30.17;;;;;;;;;;5070037;28;20230;-56
2022/11/26 05:05:29;;;;;;;37.90;31.97;;;;;;;;;;5070243;28;20176;-55
2022/11/26 05:07:54;;;;;;;38.00;31.67;;;;;;;;;;5068927;28;20207;-56
2022/11/26 05:10:20;;;;;;;33.80;30.40;;;;;;;;;;5069994;28;20170;-55
2022/11/26 05:12:45;;;;;;;39.73;31.10;;;;;;;;;;5069953;28;20198;-56
2022/11/26 05:15:10;;;;;;;34.60;31.10;;;;;;;;;;5070318;28;20175;-56
2022/11/26 05:17:35;;;;;;;40.72;31.33;;;;;;;;;;5068304;28;20184;-56
2022/11/26 05:20:00;;;;;;;33.67;30.53;;;;;;;;;;5065687;28;20185;-56
2022/11/26 05:22:26;;;;;;;35.27;31.13;;;;;;;;;;5057826;28;20236;-55
2022/11/26 05:24:51;;;;;;;41.13;31.93;;;;;;;;;;5059467;28;20209;-56
2022/11/26 05:27:16;;;;;;;38.83;30.20;;;;;;;;;;5067363;28;20233;-55
2022/11/26 05:29:41;;;;;;;42.90;32.57;;;;;;;;;;5058310;28;20192;-54
2022/11/26 05:32:06;;;;;;;36.03;30.70;;;;;;;;;;5049665;28;20184;-56
2022/11/26 05:34:31;;;;;;;34.08;30.17;;;;;;;;;;5050274;28;20531;-55
2022/11/26 05:36:56;;;;;;;39.43;32.33;;;;;;;;;;5059274;28;20226;-56
2022/11/26 05:39:22;;;;;;;33.73;30.10;;;;;;;;;;5062290;28;20259;-55
2022/11/26 05:41:47;;;;;;;35.23;31.63;;;;;;;;;;5056755;28;20541;-56
2022/11/26 05:44:12;;;;;;;33.77;30.20;;;;;;;;;;5069685;28;20205;-56
2022/11/26 05:46:38;;;;;;;32.07;28.77;;;;;;;;;;5069998;28;20182;-56
2022/11/26 05:49:04;;;;;;;44.37;33.30;;;;;;;;;;5069912;28;20186;-55
2022/11/26 05:51:29;;;;;;;36.47;31.43;;;;;;;;;;5067900;28;20597;-55
2022/11/26 05:53:54;;;;;;;40.90;31.30;;;;;;;;;;5066636;28;20256;-56
2022/11/26 05:56:19;;;;;;;36.17;32.30;;;;;;;;;;5081892;28;20191;-56
2022/11/26 05:58:45;;;;;;;40.40;33.72;;;;;;;;;;5075873;28;20202;-56
2022/11/26 06:01:10;;;;;;;41.63;31.20;;;;;;;;;;5066462;28;20187;-57
2022/11/26 06:03:36;;;;;;;43.60;33.80;;;;;;;;;;5053586;28;20544;-56
2022/11/26 06:06:01;;;;;;;42.07;33.00;;;;;;;;;;5065457;28;20179;-56
2022/11/26 06:08:26;;;;;;;44.00;34.33;;;;;;;;;;5066248;28;20184;-57
2022/11/26 06:10:51;;;;;;;45.03;34.10;;;;;;;;;;5064386;28;20320;-56
2022/11/26 06:13:16;;;;;;;40.17;33.90;;;;;;;;;;5069402;28;20198;-56
2022/11/26 06:15:42;;;;;;;46.17;36.27;;;;;;;;;;5070868;28;20183;-56
2022/11/26 06:18:07;;;;;;;43.20;35.57;;;;;;;;;;5064120;28;20241;-56
2022/11/26 06:20:32;;;;;;;50.63;36.40;;;;;;;;;;5073381;28;20175;-55
2022/11/26 06:22:57;;;;;;;52.40;38.90;;;;;;;;;;5058030;28;20330;-56
2022/11/26 06:25:22;;;;;;;44.37;35.40;;;;;;;;;;5061252;28;20182;-56
2022/11/26 06:27:48;;;;;;;39.57;35.40;;;;;;;;;;5072834;28;20189;-56
2022/11/26 06:30:13;;;;;;;44.90;35.97;;;;;;;;;;5065360;28;20194;-55
2022/11/26 06:32:38;;;;;;;50.00;36.97;;;;;;;;;;5063193;28;20248;-55
2022/11/26 06:35:04;;;;;;;47.53;36.20;;;;;;;;;;5062422;28;20170;-56
2022/11/26 06:37:30;;;;;;;48.20;36.30;;;;;;;;;;5067586;28;20516;-55
2022/11/26 06:39:55;;;;;;;45.30;36.70;;;;;;;;;;5070354;28;20767;-55
2022/11/26 06:42:20;;;;;;;46.70;39.33;;;;;;;;;;5073418;28;20644;-55
2022/11/26 06:44:45;;;;;;;57.30;40.92;;;;;;;;;;5063110;28;20255;-55
2022/11/26 06:47:11;;;;;;;39.20;35.17;;;;;;;;;;5067283;28;20170;-56
2022/11/26 06:49:36;;;;;;;50.80;39.87;;;;;;;;;;5072558;28;20178;-56
2022/11/26 06:52:01;;;;;;;40.90;36.60;;;;;;;;;;5053305;28;20248;-56
2022/11/26 06:54:26;;;;;;;45.90;36.70;;;;;;;;;;5067693;28;20181;-58
2022/11/26 06:56:52;;;;;;;48.78;37.65;;;;;;;;;;5071572;28;20628;-56
2022/11/26 06:59:17;;;;;;;57.97;38.80;;;;;;;;;;5066098;28;20230;-56
2022/11/26 07:01:42;;;;;;;39.97;35.67;;;;;;;;;;5064071;28;20541;-56
2022/11/26 07:04:08;;;;;;;41.77;34.73;;;;;;;;;;5060773;28;20274;-56
2022/11/26 07:06:34;;;;;;;46.07;35.63;;;;;;;;;;5060844;28;20643;-57
2022/11/26 07:09:03;;;;;;;44.80;34.87;;;;;;;;;;5071570;28;20575;-56
2022/11/26 07:11:28;;;;;;;43.53;34.73;;;;;;;;;;5062490;28;20581;-56
2022/11/26 07:13:53;;;;;;;43.80;35.27;;;;;;;;;;5059595;28;21252;-56
2022/11/26 07:16:19;;;;;;;42.57;32.23;;;;;;;;;;5062815;28;20192;-55
2022/11/26 07:18:51;;;;;;;43.43;33.30;;;;;;;;;;5062894;28;20590;-54
2022/11/26 07:21:17;;;;;;;44.63;36.33;;;;;;;;;;5079046;28;20176;-56
2022/11/26 07:23:42;;;;;;;42.10;33.63;;;;;;;;;;5069719;28;20644;-56
2022/11/26 07:26:08;;;;;;;40.87;32.37;;;;;;;;;;5059469;28;20164;-56
2022/11/26 07:28:33;;;;;;;32.97;29.50;;;;;;;;;;5072002;28;20226;-56
2022/11/26 07:31:01;;;;;;;37.97;32.07;;;;;;;;;;5065529;28;20178;-55
2022/11/26 07:33:27;;;;;;;37.07;30.50;;;;;;;;;;5072186;28;20270;-55
2022/11/26 07:35:52;;;;;;;37.07;33.20;;;;;;;;;;5067721;28;20739;-55
2022/11/26 07:38:17;;;;;;;31.90;27.20;;;;;;;;;;5051280;28;21093;-56
2022/11/26 07:40:42;;;;;;;36.47;28.92;;;;;;;;;;5051430;28;20265;-55
2022/11/26 07:43:07;;;;;;;36.13;29.30;;;;;;;;;;5049189;28;20211;-55
2022/11/26 07:45:34;;;;;;;39.45;32.30;;;;;;;;;;5052067;28;20176;-56
2022/11/26 07:47:59;;;;;;;31.60;27.87;;;;;;;;;;5058070;28;20262;-56
2022/11/26 07:50:25;;;;;;;37.23;29.70;;;;;;;;;;5052287;28;21148;-55
2022/11/26 07:52:50;;;;;;;31.20;26.67;;;;;;;;;;5068231;28;20178;-55
2022/11/26 07:55:16;;;;;;;29.07;25.67;;;;;;;;;;5058596;28;21016;-55
2022/11/26 07:57:41;;;;;;;36.53;27.87;;;;;;;;;;5048848;28;20173;-54
2022/11/26 08:00:06;;;;;;;36.22;29.10;;;;;;;;;;5054555;28;20183;-55
2022/11/26 08:02:31;;;;;;;36.47;26.93;;;;;;;;;;5056474;28;20229;-55
2022/11/26 08:04:56;;;;;;;37.53;27.98;;;;;;;;;;5066802;28;20206;-55
2022/11/26 08:07:22;;;;;;;32.13;27.00;;;;;;;;;;5050673;28;20191;-55
2022/11/26 08:09:47;;;;;;;28.23;23.67;;;;;;;;;;5052097;28;20550;-61
2022/11/26 08:12:12;;;;;;;32.67;26.23;;;;;;;;;;5047968;28;20550;-55
2022/11/26 08:14:37;;;;;;;27.47;24.77;;;;;;;;;;5048218;28;20182;-55
2022/11/26 08:17:02;;;;;;;33.13;26.70;;;;;;;;;;5063668;28;20546;-55
2022/11/26 08:19:28;;;;;;;34.90;26.90;;;;;;;;;;5056439;28;20285;-56
2022/11/26 08:21:53;;;;;;;29.20;24.20;;;;;;;;;;5057014;28;20544;-55
2022/11/26 08:24:18;;;;;;;24.70;22.10;;;;;;;;;;5049429;28;20235;-55
2022/11/26 08:26:43;;;;;;;29.27;20.83;;;;;;;;;;5054757;28;20190;-56
2022/11/26 08:29:10;;;;;;;25.43;19.77;;;;;;;;;;5067437;28;20202;-56
2022/11/26 08:31:35;;;;;;;23.90;18.70;;;;;;;;;;5058087;28;20608;-55
2022/11/26 08:34:01;;;;;;;24.03;20.23;;;;;;;;;;5058359;28;20189;-55
2022/11/26 08:36:26;;;;;;;25.60;20.50;;;;;;;;;;5055408;28;20206;-54
2022/11/26 08:38:52;;;;;;;26.20;19.17;;;;;;;;;;5061461;28;20609;-56
2022/11/26 08:41:17;;;;;;;20.57;17.43;;;;;;;;;;5067336;28;20186;-55
2022/11/26 08:43:42;;;;;;;27.63;16.73;;;;;;;;;;5066919;28;20264;-55
2022/11/26 08:46:08;;;;;;;26.70;17.00;;;;;;;;;;5067814;28;20168;-55
2022/11/26 08:48:34;;;;;;;20.80;17.47;;;;;;;;;;5063843;28;20195;-56
2022/11/26 08:51:03;;;;;;;22.20;17.47;;;;;;;;;;5065256;28;20574;-56
2022/11/26 08:53:29;;;;;;;24.50;18.67;;;;;;;;;;5066980;28;20677;-56
2022/11/26 08:56:08;;;;;;;25.77;19.07;;;;;;;;;;5067448;28;20596;-56
2022/11/26 08:58:34;;;;;;;27.80;19.10;;;;;;;;;;5065645;28;20694;-56
2022/11/26 09:01:05;;;;;;;26.20;19.40;;;;;;;;;;5067096;28;20687;-56
2022/11/26 09:03:31;;;;;;;27.17;19.43;;;;;;;;;;5066532;28;20647;-56
2022/11/26 09:05:59;;;;;;;27.03;17.40;;;;;;;;;;5071516;28;20621;-56
2022/11/26 09:08:26;;;;;;;27.30;17.57;;;;;;;;;;5053411;28;20180;-57
2022/11/26 09:10:52;;;;;;;24.40;15.83;;;;;;;;;;5047045;28;20595;-55
2022/11/26 09:13:17;;;;;;;22.80;16.17;;;;;;;;;;5053356;28;20635;-55
2022/11/26 09:15:42;;;;;;;26.13;17.00;;;;;;;;;;5062298;28;20175;-55
2022/11/26 09:18:07;;;;;;;22.30;14.20;;;;;;;;;;5066177;28;20256;-56
2022/11/26 09:20:32;;;;;;;27.20;15.70;;;;;;;;;;5064753;28;20187;-54
2022/11/26 09:22:58;;;;;;;20.70;14.03;;;;;;;;;;5063577;28;20202;-55
2022/11/26 09:25:23;;;;;;;23.87;15.70;;;;;;;;;;5049937;28;20311;-55
2022/11/26 09:27:48;;;;;;;20.92;15.13;;;;;;;;;;5059681;28;20188;-55
2022/11/26 09:30:15;;;;;;;20.47;14.70;;;;;;;;;;5049038;28;20226;-55
2022/11/26 09:32:40;;;;;;;22.13;16.57;;;;;;;;;;5061156;28;20620;-55
2022/11/26 09:35:05;;;;;;;19.58;14.52;;;;;;;;;;5051256;28;20603;-55
2022/11/26 09:37:31;;;;;;;20.57;13.70;;;;;;;;;;5047316;28;20226;-55
2022/11/26 09:39:56;;;;;;;23.97;15.27;;;;;;;;;;5056987;28;20208;-54
2022/11/26 09:42:39;;;;;;;18.13;14.50;;;;;;;;;;5060762;28;20307;-54
2022/11/26 09:45:11;;;;;;;15.17;12.93;;;;;;;;;;5047039;28;20193;-55
2022/11/26 09:47:39;;;;;;;19.83;15.37;;;;;;;;;;5046670;28;20634;-55
2022/11/26 09:50:10;;;;;;;22.20;15.30;;;;;;;;;;5047063;28;20567;-55
2022/11/26 09:52:39;;;;;;;23.40;14.90;;;;;;;;;;5057539;28;20964;-55
2022/11/26 09:55:18;;;;;;;17.90;13.97;;;;;;;;;;5054195;28;20600;-55
2022/11/26 09:57:50;;;;;;;23.90;16.07;;;;;;;;;;5058726;28;20609;-56
2022/11/26 10:00:25;;;;;;;25.03;17.13;;;;;;;;;;5054737;28;20599;-56
2022/11/26 10:02:50;;;;;;;24.40;16.27;;;;;;;;;;5072873;28;20668;-55
2022/11/26 10:05:16;;;;;;;19.47;15.10;;;;;;;;;;5073331;28;21048;-55
2022/11/26 10:08:02;;;;;;;16.93;13.90;;;;;;;;;;5063089;28;20626;-54
2022/11/26 10:10:40;;;;;;;18.87;12.30;;;;;;;;;;5053476;28;20188;-55
2022/11/26 10:13:12;;;;;;;17.13;12.17;;;;;;;;;;5066412;28;20625;-56
2022/11/26 10:15:44;;;;;;;18.17;11.90;;;;;;;;;;5072118;28;20594;-55
2022/11/26 10:18:12;;;;;;;18.87;11.07;;;;;;;;;;5050939;28;20693;-56
2022/11/26 10:20:46;;;;;;;15.13;10.97;;;;;;;;;;5071894;28;20613;-56
2022/11/26 10:23:11;;;;;;;17.07;10.93;;;;;;;;;;5066756;28;20602;-57
2022/11/26 10:25:51;;;;;;;20.03;11.27;;;;;;;;;;5052917;28;20603;-56
2022/11/26 10:28:21;;;;;;;17.03;11.40;;;;;;;;;;5062223;28;20179;-56
2022/11/26 10:30:50;;;;;;;14.33;10.90;;;;;;;;;;5071039;28;20602;-57
2022/11/26 10:33:16;;;;;;;12.30;10.00;;;;;;;;;;5063251;28;20671;-56
2022/11/26 10:35:43;;;;;;;14.30;10.53;;;;;;;;;;5058697;28;20747;-55
2022/11/26 10:38:09;;;;;;;14.30;10.47;;;;;;;;;;5067461;28;20593;-56
2022/11/26 10:40:34;;;;;;;16.50;11.30;;;;;;;;;;5083132;28;20664;-56
2022/11/26 10:43:08;;;;;;;14.23;11.70;;;;;;;;;;5076974;28;20175;-58
2022/11/26 10:45:39;;;;;;;15.33;11.07;;;;;;;;;;5058165;28;20218;-57
2022/11/26 10:48:15;;;;;;;19.20;11.07;;;;;;;;;;5054825;28;20632;-55
2022/11/26 10:50:41;;;;;;;19.13;12.00;;;;;;;;;;5072711;28;20936;-56
2022/11/26 10:53:06;;;;;;;16.90;10.67;;;;;;;;;;5072814;28;20566;-55
2022/11/26 10:55:36;;;;;;;14.40;10.30;;;;;;;;;;5072840;28;20173;-56
2022/11/26 10:58:04;;;;;;;18.23;11.87;;;;;;;;;;5072534;28;20218;-55
2022/11/26 11:00:44;;;;;;;14.40;10.00;;;;;;;;;;5072387;28;20613;-57
2022/11/26 11:03:34;;;;;;;12.90;10.17;;;;;;;;;;5071973;28;20561;-56
2022/11/26 11:06:09;;;;;;;14.23;10.13;;;;;;;;;;5064082;28;20610;-57
2022/11/26 11:08:34;;;;;;;13.43;10.00;;;;;;;;;;5065379;28;20602;-55
2022/11/26 11:11:00;;;;;;;14.13;9.80;;;;;;;;;;5072361;28;20582;-56
2022/11/26 11:13:42;;;;;;;17.47;10.97;;;;;;;;;;5071924;28;20303;-56
2022/11/26 11:16:08;;;;;;;17.50;11.30;;;;;;;;;;5072353;28;21213;-57
2022/11/26 11:18:34;;;;;;;16.43;9.90;;;;;;;;;;5072224;28;20646;-55
2022/11/26 11:21:02;;;;;;;13.07;9.30;;;;;;;;;;5072527;28;20172;-55
2022/11/26 11:23:31;;;;;;;13.03;9.33;;;;;;;;;;5071985;28;20659;-56
2022/11/26 11:25:58;;;;;;;14.73;8.97;;;;;;;;;;5072166;28;20588;-57
2022/11/26 11:28:25;;;;;;;14.03;9.03;;;;;;;;;;5061198;28;20676;-56
2022/11/26 11:30:59;;;;;;;16.07;9.30;;;;;;;;;;5059296;28;20593;-56
2022/11/26 11:33:26;;;;;;;15.70;9.20;;;;;;;;;;5058082;28;20716;-57
2022/11/26 11:36:02;;;;;;;14.80;9.27;;;;;;;;;;5085620;28;21870;-57
2022/11/26 11:38:29;;;;;;;13.27;9.60;;;;;;;;;;5072315;28;20601;-57
2022/11/26 11:40:54;;;;;;;16.60;10.27;;;;;;;;;;5062265;28;20606;-57
2022/11/26 11:43:22;;;;;;;15.20;9.77;;;;;;;;;;5057725;28;20796;-56
2022/11/26 11:46:10;;;;;;;14.00;9.50;;;;;;;;;;5068448;28;20168;-56
2022/11/26 11:48:42;;;;;;;16.27;9.40;;;;;;;;;;5062039;28;20697;-57
2022/11/26 11:51:19;;;;;;;10.97;9.17;;;;;;;;;;5065634;28;21370;-57
2022/11/26 11:54:03;;;;;;;12.83;8.90;;;;;;;;;;5075459;28;20610;-57
2022/11/26 11:56:37;;;;;;;18.77;9.03;;;;;;;;;;5060891;28;20610;-57
2022/11/26 11:59:36;;;;;;;13.43;9.17;;;;;;;;;;5065246;28;20620;-57
2022/11/26 12:02:16;;;;;;;13.47;9.37;;;;;;;;;;5062687;28;20876;-56
2022/11/26 12:05:00;;;;;;;12.10;8.73;;;;;;;;;;5071272;28;20682;-55
2022/11/26 12:07:25;;;;;;;13.30;9.43;;;;;;;;;;5074868;28;20687;-57
2022/11/26 12:09:50;;;;;;;14.03;9.60;;;;;;;;;;5061298;28;21245;-56
2022/11/26 12:12:27;;;;;;;12.95;9.18;;;;;;;;;;5067768;28;20200;-58
2022/11/26 12:14:58;;;;;;;12.43;9.20;;;;;;;;;;5064705;28;20551;-57
2022/11/26 12:17:30;;;;;;;13.93;8.57;;;;;;;;;;5075796;28;20607;-55
2022/11/26 12:20:14;;;;;;;11.37;8.63;;;;;;;;;;5064437;28;20740;-55
2022/11/26 12:23:02;;;;;;;12.40;8.53;;;;;;;;;;5062086;28;21036;-56
2022/11/26 12:25:34;;;;;;;13.57;9.37;;;;;;;;;;5071789;28;20687;-55
2022/11/26 12:28:11;;;;;;;14.30;8.90;;;;;;;;;;5057276;28;20716;-56
2022/11/26 12:30:47;;;;;;;11.30;8.57;;;;;;;;;;5056939;28;20628;-56
2022/11/26 12:33:16;;;;;;;12.87;10.47;;;;;;;;;;5064170;28;20620;-55
2022/11/26 12:35:44;;;;;;;19.10;9.70;;;;;;;;;;5074247;28;20670;-56
2022/11/26 12:38:12;;;;;;;12.50;9.53;;;;;;;;;;5076204;28;20609;-56
2022/11/26 12:40:43;;;;;;;15.43;9.80;;;;;;;;;;5065706;28;22755;-56
2022/11/26 12:43:19;;;;;;;10.60;8.90;;;;;;;;;;5072708;28;20727;-57
2022/11/26 12:46:08;;;;;;;15.83;9.47;;;;;;;;;;5063965;28;20622;-56
2022/11/26 12:48:39;;;;;;;10.13;7.77;;;;;;;;;;5058390;28;20614;-55
2022/11/26 12:51:04;;;;;;;11.60;8.70;;;;;;;;;;5065438;28;20652;-57
2022/11/26 12:53:48;;;;;;;10.43;7.68;;;;;;;;;;5070338;28;21005;-56
2022/11/26 12:56:18;;;;;;;14.10;8.60;;;;;;;;;;5059008;28;20636;-55
2022/11/26 12:58:51;;;;;;;11.77;8.43;;;;;;;;;;5055497;28;20635;-57
2022/11/26 13:01:16;;;;;;;14.00;9.30;;;;;;;;;;5073086;28;20621;-56
2022/11/26 13:03:41;;;;;;;14.80;8.07;;;;;;;;;;5078946;28;20657;-58
2022/11/26 13:06:06;;;;;;;11.50;8.30;;;;;;;;;;5090357;28;20164;-58
2022/11/26 13:08:38;;;;;;;13.33;9.27;;;;;;;;;;5063897;28;20189;-56
2022/11/26 13:11:12;;;;;;;12.97;7.90;;;;;;;;;;5067676;28;20178;-56
2022/11/26 13:13:42;;;;;;;12.23;8.30;;;;;;;;;;5053589;28;20628;-54
2022/11/26 13:16:13;;;;;;;11.33;7.83;;;;;;;;;;5066484;28;20721;-56
2022/11/26 13:18:43;;;;;;;13.20;7.20;;;;;;;;;;5078715;28;20670;-57
2022/11/26 13:21:11;;;;;;;11.43;7.47;;;;;;;;;;5064511;28;20623;-56
2022/11/26 13:23:43;;;;;;;13.57;8.13;;;;;;;;;;5057004;28;20654;-56
2022/11/26 13:26:11;;;;;;;10.17;6.63;;;;;;;;;;5068541;28;20698;-57
2022/11/26 13:28:54;;;;;;;14.33;8.60;;;;;;;;;;5080031;28;21163;-56
2022/11/26 13:31:42;;;;;;;10.90;7.97;;;;;;;;;;5072005;28;21182;-55
2022/11/26 13:34:13;;;;;;;8.90;6.97;;;;;;;;;;5059560;28;20606;-56
2022/11/26 13:36:44;;;;;;;13.87;8.13;;;;;;;;;;5070331;28;20606;-57
2022/11/26 13:39:32;;;;;;;12.53;7.17;;;;;;;;;;5081470;28;20628;-55
2022/11/26 13:42:16;;;;;;;14.60;8.47;;;;;;;;;;5067087;28;20622;-57
2022/11/26 13:45:02;;;;;;;11.33;8.53;;;;;;;;;;5071788;28;20721;-56
2022/11/26 13:47:36;;;;;;;15.20;9.50;;;;;;;;;;5083326;28;20618;-55
2022/11/26 13:50:05;;;;;;;13.23;8.97;;;;;;;;;;5064057;28;21446;-55
2022/11/26 13:52:37;;;;;;;11.43;8.80;;;;;;;;;;5078004;28;20614;-55
2022/11/26 13:55:05;;;;;;;11.57;8.97;;;;;;;;;;5077007;28;20701;-55
2022/11/26 13:57:39;;;;;;;10.77;8.40;;;;;;;;;;5090549;28;20605;-55
2022/11/26 14:00:06;;;;;;;12.60;9.03;;;;;;;;;;5063098;28;20641;-55
2022/11/26 14:02:31;;;;;;;14.47;8.93;;;;;;;;;;5083628;28;21188;-55
2022/11/26 14:04:56;;;;;;;12.88;9.07;;;;;;;;;;5093156;28;20643;-56
2022/11/26 14:07:21;;;;;;;12.00;8.23;;;;;;;;;;5093335;28;20561;-56
2022/11/26 14:09:48;;;;;;;18.60;9.30;;;;;;;;;;5096735;28;20639;-56
2022/11/26 14:12:13;;;;;;;11.20;7.57;;;;;;;;;;5093068;28;20188;-56
2022/11/26 14:14:39;;;;;;;11.90;7.53;;;;;;;;;;5094490;28;21164;-55
2022/11/26 14:17:07;;;;;;;15.70;7.90;;;;;;;;;;5096799;28;20166;-57
2022/11/26 14:19:38;;;;;;;11.90;7.43;;;;;;;;;;5094812;28;21226;-58
2022/11/26 14:22:05;;;;;;;8.90;7.33;;;;;;;;;;5090548;28;20624;-56
2022/11/26 14:24:48;;;;;;;10.90;8.10;;;;;;;;;;5075401;28;21004;-56